Terminal Aerodrome Forecast
Issued by NWS

Home | Current Version | Previous Version | Text Only | Print | Product List | Glossary Off
Versions: 1 2 3 4 5 6 7 8 9 10 11 12 13 14 15 16 17

000
FTUS43 KGRB 281251 AAA
TAFRHI
TAF AMD
KRHI 281251Z 2813/2912 06004KT P6SM SCT025 BKN110
      TEMPO 2813/2815 SCT008 BKN025
     FM281500 05004KT P6SM BKN050
     FM282100 05004KT P6SM SCT020 BKN035
     FM290100 VRB02KT P6SM SCT035 BKN100
     FM290500 00000KT 4SM BR SCT100=

USA.gov is the U.S. government's official web portal to all federal, state and local government web resources and services.